Time;durP1;ratioP1;P1;durP2;ratioP2;P2;SDS_P1;SDS_P2;PMS_P1;PMS_P2;Temp;Humidity;BMP_temperature;BMP_pressure;BME280_temperature;BME280_humidity;BME280_pressure;Samples;Min_cycle;Max_cycle;Signal;HPM_P1;HPM_P2
2023/10/22 00:02:02;;;;;;;;;;;;;;;8.75;51.22;94240.44;4962733;28;19914;-68
2023/10/22 00:04:27;;;;;;;;;;;;;;;8.59;50.60;94244.25;4970232;28;19926;-68
2023/10/22 00:06:52;;;;;;;;;;;;;;;8.69;52.55;94252.66;4964540;28;19922;-68
2023/10/22 00:09:18;;;;;;;;;;;;;;;8.17;49.28;94248.56;4964432;28;19930;-68
2023/10/22 00:11:43;;;;;;;;;;;;;;;8.32;51.07;94238.88;4962123;28;19929;-68
2023/10/22 00:14:08;;;;;;;;;;;;;;;7.13;51.94;94248.25;4969696;28;19956;-68
2023/10/22 00:16:33;;;;;;;;;;;;;;;7.91;50.63;94250.09;4966558;28;19960;-68
2023/10/22 00:18:59;;;;;;;;;;;;;;;7.80;51.49;94242.66;4968932;28;19918;-68
2023/10/22 00:21:24;;;;;;;;;;;;;;;7.89;52.63;94248.66;4963884;28;19956;-68
2023/10/22 00:23:49;;;;;;;;;;;;;;;8.09;52.06;94242.63;4973267;28;19933;-68
2023/10/22 00:26:14;;;;;;;;;;;;;;;8.15;50.81;94244.47;4970539;28;19914;-68
2023/10/22 00:28:40;;;;;;;;;;;;;;;8.03;52.85;94245.03;4971584;28;19925;-68
2023/10/22 00:31:05;;;;;;;;;;;;;;;8.18;50.41;94246.75;4970885;28;20262;-68
2023/10/22 00:33:30;;;;;;;;;;;;;;;8.08;50.79;94243.63;4972768;28;19968;-68
2023/10/22 00:35:56;;;;;;;;;;;;;;;7.90;54.31;94250.28;4965763;28;19952;-68
2023/10/22 00:38:21;;;;;;;;;;;;;;;7.95;51.27;94247.03;4972908;28;19951;-68
2023/10/22 00:40:47;;;;;;;;;;;;;;;6.50;54.05;94253.09;4969368;28;19933;-68
2023/10/22 00:43:12;;;;;;;;;;;;;;;7.65;51.19;94251.50;4966638;28;19925;-68
2023/10/22 00:45:37;;;;;;;;;;;;;;;7.06;53.50;94247.34;4970051;28;20378;-68
2023/10/22 00:48:02;;;;;;;;;;;;;;;7.55;52.44;94253.66;4970343;28;20508;-68
2023/10/22 00:50:28;;;;;;;;;;;;;;;7.43;52.77;94244.63;4967635;28;19929;-69
2023/10/22 00:52:53;;;;;;;;;;;;;;;7.79;52.21;94252.44;4965993;28;19959;-68
2023/10/22 00:55:18;;;;;;;;;;;;;;;8.01;50.73;94243.59;4965742;28;19921;-68
2023/10/22 00:57:43;;;;;;;;;;;;;;;7.89;52.54;94246.78;4969556;28;20384;-68
2023/10/22 01:00:09;;;;;;;;;;;;;;;7.74;51.05;94246.88;4965235;28;19921;-69
2023/10/22 01:02:34;;;;;;;;;;;;;;;7.78;50.47;94240.22;4967760;28;19926;-68
2023/10/22 01:05:00;;;;;;;;;;;;;;;7.93;51.14;94247.25;4967033;28;19953;-69
2023/10/22 01:07:25;;;;;;;;;;;;;;;7.33;51.65;94247.59;4970570;28;19922;-68
2023/10/22 01:09:50;;;;;;;;;;;;;;;7.39;51.51;94247.63;4968237;28;19953;-69
2023/10/22 01:12:16;;;;;;;;;;;;;;;7.59;52.12;94262.06;4946872;28;19957;-69
2023/10/22 01:14:41;;;;;;;;;;;;;;;7.89;54.20;94251.28;4968104;28;19932;-69
2023/10/22 01:17:06;;;;;;;;;;;;;;;7.97;53.29;94251.13;4973263;28;19924;-69
2023/10/22 01:19:32;;;;;;;;;;;;;;;7.70;54.81;94253.59;4961218;28;19925;-69
2023/10/22 01:21:57;;;;;;;;;;;;;;;7.92;51.25;94267.63;4961996;28;19958;-69
2023/10/22 01:24:22;;;;;;;;;;;;;;;8.05;51.48;94260.75;4963054;28;20353;-69
2023/10/22 01:26:47;;;;;;;;;;;;;;;7.70;51.60;94271.28;4963750;28;19948;-69
2023/10/22 01:29:13;;;;;;;;;;;;;;;7.44;54.52;94260.31;4964654;28;20024;-69
2023/10/22 01:31:39;;;;;;;;;;;;;;;6.52;55.42;94273.28;4964217;28;20014;-69
2023/10/22 01:34:04;;;;;;;;;;;;;;;7.32;52.99;94269.78;4962414;28;19918;-69
2023/10/22 01:36:29;;;;;;;;;;;;;;;7.65;52.83;94270.06;4961051;28;20002;-69
2023/10/22 01:38:55;;;;;;;;;;;;;;;7.76;51.79;94271.34;4963169;28;19914;-69
2023/10/22 01:41:20;;;;;;;;;;;;;;;7.71;55.39;94275.56;4963617;28;20661;-69
2023/10/22 01:43:45;;;;;;;;;;;;;;;7.73;52.98;94271.75;4959246;28;19921;-70
2023/10/22 01:46:11;;;;;;;;;;;;;;;7.90;52.27;94274.97;4961832;28;19951;-69
2023/10/22 01:48:37;;;;;;;;;;;;;;;7.84;53.08;94269.59;4962984;28;20067;-69
2023/10/22 01:51:02;;;;;;;;;;;;;;;8.08;51.40;94275.44;4962955;28;19914;-68
2023/10/22 01:53:28;;;;;;;;;;;;;;;8.05;52.97;94281.94;4962995;28;19918;-69
2023/10/22 01:55:53;;;;;;;;;;;;;;;8.07;51.71;94287.06;4962925;28;19957;-69
2023/10/22 01:58:18;;;;;;;;;;;;;;;7.66;51.87;94292.06;4967784;28;20444;-69
2023/10/22 02:00:43;;;;;;;;;;;;;;;6.96;55.07;94300.59;4962884;28;20401;-69
2023/10/22 02:03:09;;;;;;;;;;;;;;;7.72;52.21;94301.88;4962608;28;20062;-69
2023/10/22 02:05:34;;;;;;;;;;;;;;;7.52;51.80;94305.19;4963614;28;19945;-69
2023/10/22 02:08:00;;;;;;;;;;;;;;;7.75;53.64;94308.66;4963418;28;20664;-68
2023/10/22 02:10:25;;;;;;;;;;;;;;;7.98;55.42;94307.59;4958812;28;20062;-69
2023/10/22 02:12:50;;;;;;;;;;;;;;;8.27;53.25;94303.09;4963292;28;19949;-69
2023/10/22 02:15:16;;;;;;;;;;;;;;;8.34;51.01;94301.31;4971911;28;20156;-69
2023/10/22 02:17:41;;;;;;;;;;;;;;;8.53;52.97;94294.44;4966381;28;19914;-69
2023/10/22 02:20:08;;;;;;;;;;;;;;;7.52;53.04;94299.91;4971984;28;19924;-69
2023/10/22 02:22:34;;;;;;;;;;;;;;;7.64;53.53;94291.44;4962637;28;20340;-69
2023/10/22 02:24:59;;;;;;;;;;;;;;;7.66;54.22;94295.53;4962390;28;20005;-69
2023/10/22 02:27:24;;;;;;;;;;;;;;;7.26;53.30;94301.31;4962378;28;19930;-69
2023/10/22 02:29:49;;;;;;;;;;;;;;;7.06;54.89;94306.41;4963763;28;19933;-68
2023/10/22 02:32:15;;;;;;;;;;;;;;;7.75;52.09;94298.84;4962815;28;19914;-69
2023/10/22 02:34:40;;;;;;;;;;;;;;;8.12;51.41;94309.31;4966784;28;20190;-69
2023/10/22 02:37:05;;;;;;;;;;;;;;;7.65;52.11;94312.44;4969692;28;19948;-69
2023/10/22 02:39:31;;;;;;;;;;;;;;;7.37;53.46;94312.38;4967766;28;19921;-69
2023/10/22 02:41:56;;;;;;;;;;;;;;;7.20;54.20;94307.34;4963458;28;19928;-69
2023/10/22 02:44:22;;;;;;;;;;;;;;;7.65;53.78;94308.97;4963392;28;19972;-69
2023/10/22 02:46:47;;;;;;;;;;;;;;;7.85;53.81;94303.03;4966800;28;19952;-69
2023/10/22 02:49:12;;;;;;;;;;;;;;;8.26;51.67;94314.72;4964749;28;19952;-68
2023/10/22 02:51:37;;;;;;;;;;;;;;;8.27;54.39;94311.84;4967454;28;19993;-69
2023/10/22 02:54:03;;;;;;;;;;;;;;;8.37;51.36;94310.69;4965028;28;20395;-69
2023/10/22 02:56:28;;;;;;;;;;;;;;;7.17;54.35;94312.22;4962734;28;20031;-69
2023/10/22 02:58:53;;;;;;;;;;;;;;;6.95;54.08;94313.03;4966983;28;19916;-69
2023/10/22 03:01:18;;;;;;;;;;;;;;;8.04;52.37;94312.97;4962358;28;19928;-69
2023/10/22 03:03:44;;;;;;;;;;;;;;;7.45;53.19;94319.41;4966572;28;20484;-68
2023/10/22 03:06:10;;;;;;;;;;;;;;;8.34;51.83;94313.72;4969570;28;20422;-69
2023/10/22 03:08:35;;;;;;;;;;;;;;;8.12;54.09;94317.28;4971026;28;20516;-69
2023/10/22 03:11:01;;;;;;;;;;;;;;;8.30;51.10;94332.69;4961491;28;20008;-69
2023/10/22 03:13:26;;;;;;;;;;;;;;;8.43;53.03;94321.31;4967363;28;20005;-69
2023/10/22 03:15:51;;;;;;;;;;;;;;;7.94;51.47;94331.03;4965265;28;20464;-69
2023/10/22 03:18:16;;;;;;;;;;;;;;;8.59;52.63;94331.78;4969865;28;20615;-69
2023/10/22 03:20:42;;;;;;;;;;;;;;;8.82;49.97;94332.31;4965568;28;20005;-68
2023/10/22 03:23:07;;;;;;;;;;;;;;;8.93;51.16;94336.25;4965898;28;19918;-69
2023/10/22 03:25:34;;;;;;;;;;;;;;;8.29;53.45;94333.69;4968898;28;20050;-69
2023/10/22 03:28:00;;;;;;;;;;;;;;;8.40;52.25;94331.53;4968207;28;19928;-69
2023/10/22 03:30:25;;;;;;;;;;;;;;;8.61;52.50;94332.44;4969842;28;19918;-69
2023/10/22 03:32:51;;;;;;;;;;;;;;;8.77;51.40;94332.09;4969713;28;19984;-69
2023/10/22 03:35:16;;;;;;;;;;;;;;;8.76;51.63;94343.72;4970857;28;20015;-69
2023/10/22 03:37:41;;;;;;;;;;;;;;;8.85;50.39;94335.59;4967922;28;20548;-69
2023/10/22 03:40:07;;;;;;;;;;;;;;;8.84;50.83;94339.25;4961853;28;19988;-69
2023/10/22 03:42:33;;;;;;;;;;;;;;;9.10;51.34;94341.22;4966263;28;19929;-69
2023/10/22 03:44:59;;;;;;;;;;;;;;;9.20;51.92;94351.44;4962551;28;19914;-69
2023/10/22 03:47:25;;;;;;;;;;;;;;;9.16;50.65;94343.06;4965846;28;19976;-69
2023/10/22 03:49:50;;;;;;;;;;;;;;;9.20;49.75;94340.81;4963502;28;19918;-69
2023/10/22 03:52:15;;;;;;;;;;;;;;;9.18;50.95;94342.88;4964887;28;19968;-69
2023/10/22 03:54:40;;;;;;;;;;;;;;;9.29;49.87;94355.53;4968794;28;19949;-69
2023/10/22 03:57:06;;;;;;;;;;;;;;;9.29;51.09;94350.22;4966777;28;20469;-69
2023/10/22 03:59:31;;;;;;;;;;;;;;;9.47;51.52;94359.47;4970581;28;19926;-69
2023/10/22 04:01:56;;;;;;;;;;;;;;;9.29;50.08;94355.53;4975491;28;19917;-69
2023/10/22 04:04:22;;;;;;;;;;;;;;;9.22;51.88;94352.09;4972213;28;20032;-69
2023/10/22 04:06:47;;;;;;;;;;;;;;;9.12;51.71;94360.44;4974335;28;20409;-69
2023/10/22 04:09:13;;;;;;;;;;;;;;;9.13;51.67;94367.38;4973398;28;19928;-69
2023/10/22 04:11:38;;;;;;;;;;;;;;;9.39;50.94;94370.28;4969743;28;20424;-69
2023/10/22 04:14:03;;;;;;;;;;;;;;;9.27;50.59;94368.22;4974177;28;19980;-69
2023/10/22 04:16:28;;;;;;;;;;;;;;;9.48;50.51;94376.25;4970929;28;19969;-69
2023/10/22 04:18:54;;;;;;;;;;;;;;;9.10;51.70;94380.22;4974068;28;19971;-69
2023/10/22 04:21:19;;;;;;;;;;;;;;;8.90;51.80;94380.91;4968040;28;20287;-69
2023/10/22 04:23:44;;;;;;;;;;;;;;;9.24;51.29;94381.09;4975452;28;19964;-69
2023/10/22 04:26:13;;;;;;;;;;;;;;;9.13;52.36;94377.16;4973155;28;19969;-68
2023/10/22 04:28:45;;;;;;;;;;;;;;;8.76;51.01;94383.53;4980740;28;20578;-68
2023/10/22 04:31:10;;;;;;;;;;;;;;;8.98;51.74;94380.81;4974403;28;19937;-68
2023/10/22 04:33:35;;;;;;;;;;;;;;;9.00;50.28;94391.19;4972055;28;19910;-70
2023/10/22 04:36:01;;;;;;;;;;;;;;;8.53;53.41;94392.59;4973165;28;19926;-68
2023/10/22 04:38:26;;;;;;;;;;;;;;;8.86;52.38;94385.81;4967836;28;19918;-68
2023/10/22 04:40:51;;;;;;;;;;;;;;;9.01;52.30;94396.31;4968553;28;20474;-70
2023/10/22 04:43:16;;;;;;;;;;;;;;;9.04;50.91;94395.91;4967027;28;19956;-69
2023/10/22 04:45:45;;;;;;;;;;;;;;;8.05;52.84;94406.53;4971410;28;19909;-67
2023/10/22 04:48:10;;;;;;;;;;;;;;;8.84;51.32;94405.63;4968449;28;20012;-70
2023/10/22 04:50:37;;;;;;;;;;;;;;;8.74;51.32;94412.09;4970328;28;20013;-67
2023/10/22 04:53:02;;;;;;;;;;;;;;;8.64;52.40;94411.63;4970375;28;19914;-70
2023/10/22 04:55:27;;;;;;;;;;;;;;;8.92;52.23;94413.41;4968393;28;19959;-69
2023/10/22 04:57:54;;;;;;;;;;;;;;;8.25;52.19;94427.91;4969960;28;19995;-70
2023/10/22 05:00:20;;;;;;;;;;;;;;;8.49;51.94;94414.38;4973205;28;19960;-68
2023/10/22 05:02:45;;;;;;;;;;;;;;;8.74;53.01;94421.91;4949700;28;20331;-67
2023/10/22 05:05:11;;;;;;;;;;;;;;;8.78;51.75;94417.84;4972769;28;19924;-68
2023/10/22 05:07:36;;;;;;;;;;;;;;;8.94;52.36;94421.97;4971890;28;19943;-68
2023/10/22 05:10:02;;;;;;;;;;;;;;;8.91;52.16;94425.06;4965958;28;20109;-69
2023/10/22 05:12:27;;;;;;;;;;;;;;;8.97;52.71;94428.78;4946696;28;19918;-68
2023/10/22 05:14:52;;;;;;;;;;;;;;;8.16;54.25;94431.72;4968822;28;19960;-67
2023/10/22 05:17:18;;;;;;;;;;;;;;;8.39;53.23;94435.94;4970814;28;19963;-69
2023/10/22 05:19:43;;;;;;;;;;;;;;;8.65;53.95;94443.28;4968177;28;20507;-70
2023/10/22 05:22:08;;;;;;;;;;;;;;;8.75;53.81;94439.44;4968270;28;19918;-68
2023/10/22 05:24:33;;;;;;;;;;;;;;;8.91;52.63;94448.94;4967969;28;19952;-68
2023/10/22 05:26:59;;;;;;;;;;;;;;;8.97;53.79;94445.50;4972284;28;19929;-68
2023/10/22 05:29:24;;;;;;;;;;;;;;;9.06;52.17;94444.34;4968792;28;19918;-67
2023/10/22 05:31:49;;;;;;;;;;;;;;;8.94;52.16;94448.53;4964801;28;19925;-70
2023/10/22 05:34:15;;;;;;;;;;;;;;;8.99;52.79;94455.94;4964755;28;19926;-69
2023/10/22 05:36:40;;;;;;;;;;;;;;;9.23;52.02;94451.13;4965373;28;19951;-67
2023/10/22 05:39:05;;;;;;;;;;;;;;;8.66;53.23;94454.69;4963419;28;19918;-69
2023/10/22 05:41:30;;;;;;;;;;;;;;;9.03;53.24;94455.34;4966635;28;19949;-69
2023/10/22 05:43:56;;;;;;;;;;;;;;;9.16;52.14;94459.09;4963964;28;19918;-69
2023/10/22 05:46:22;;;;;;;;;;;;;;;8.27;53.42;94467.50;4971419;28;19977;-69
2023/10/22 05:48:47;;;;;;;;;;;;;;;8.63;53.96;94465.69;4969295;28;19924;-69
2023/10/22 05:51:12;;;;;;;;;;;;;;;8.61;53.65;94465.06;4968433;28;20055;-69
2023/10/22 05:53:38;;;;;;;;;;;;;;;8.93;53.35;94468.13;4968772;28;20311;-69
2023/10/22 05:56:03;;;;;;;;;;;;;;;9.13;52.81;94468.28;4967304;28;19978;-69
2023/10/22 05:58:28;;;;;;;;;;;;;;;8.93;53.60;94481.41;4968435;28;19918;-69
2023/10/22 06:00:55;;;;;;;;;;;;;;;9.22;53.24;94479.56;4970169;28;20485;-69
2023/10/22 06:03:20;;;;;;;;;;;;;;;9.36;52.39;94488.41;4971600;28;19959;-69
2023/10/22 06:05:45;;;;;;;;;;;;;;;9.56;51.95;94487.66;4972413;28;19914;-69
2023/10/22 06:08:10;;;;;;;;;;;;;;;9.54;51.14;94495.81;4971327;28;19988;-68
2023/10/22 06:10:42;;;;;;;;;;;;;;;9.28;51.68;94497.34;4968295;28;19954;-69
2023/10/22 06:13:07;;;;;;;;;;;;;;;9.33;52.28;94504.72;4965587;28;19918;-68
2023/10/22 06:15:35;;;;;;;;;;;;;;;9.29;52.15;94516.75;4967167;28;19948;-69
2023/10/22 06:18:01;;;;;;;;;;;;;;;8.46;54.42;94516.38;4967731;28;19914;-68
2023/10/22 06:20:28;;;;;;;;;;;;;;;8.95;53.47;94521.88;4969432;28;19917;-69
2023/10/22 06:22:54;;;;;;;;;;;;;;;8.68;53.90;94519.81;4967703;28;19918;-69
2023/10/22 06:25:20;;;;;;;;;;;;;;;9.11;53.12;94517.28;4970361;28;19972;-69
2023/10/22 06:27:45;;;;;;;;;;;;;;;9.25;52.79;94516.31;4969608;28;19922;-69
2023/10/22 06:30:10;;;;;;;;;;;;;;;8.48;55.12;94524.16;4946586;28;19941;-68
2023/10/22 06:32:35;;;;;;;;;;;;;;;9.01;53.58;94528.25;4963153;28;19918;-68
2023/10/22 06:35:01;;;;;;;;;;;;;;;7.71;56.61;94533.38;4965946;28;20465;-68
2023/10/22 06:37:26;;;;;;;;;;;;;;;8.65;54.70;94530.00;4964573;28;20492;-69
2023/10/22 06:39:52;;;;;;;;;;;;;;;7.78;57.20;94539.63;4969000;28;19945;-68
2023/10/22 06:42:17;;;;;;;;;;;;;;;8.30;56.14;94536.06;4968121;28;19914;-68
2023/10/22 06:44:43;;;;;;;;;;;;;;;8.02;56.25;94550.03;4967919;28;20211;-69
2023/10/22 06:47:09;;;;;;;;;;;;;;;7.79;57.48;94553.69;4973269;28;20478;-69
2023/10/22 06:49:34;;;;;;;;;;;;;;;7.86;57.33;94548.47;4972640;28;19918;-69
2023/10/22 06:51:59;;;;;;;;;;;;;;;7.62;57.63;94553.06;4966301;28;20017;-69
2023/10/22 06:54:24;;;;;;;;;;;;;;;6.03;63.50;94551.09;4961056;28;19967;-68
2023/10/22 06:56:50;;;;;;;;;;;;;;;7.51;58.89;94562.28;4965993;28;19951;-68
2023/10/22 06:59:15;;;;;;;;;;;;;;;7.59;59.03;94569.31;4963833;28;19917;-69
2023/10/22 07:01:40;;;;;;;;;;;;;;;8.11;57.64;94567.50;4967849;28;19981;-68
2023/10/22 07:04:05;;;;;;;;;;;;;;;8.12;57.37;94563.00;4965722;28;20398;-68
2023/10/22 07:06:31;;;;;;;;;;;;;;;8.37;56.73;94574.03;4969174;28;19988;-68
2023/10/22 07:08:56;;;;;;;;;;;;;;;8.25;57.18;94571.09;4965627;28;19959;-69
2023/10/22 07:11:21;;;;;;;;;;;;;;;8.43;56.55;94585.72;4966740;28;19967;-68
2023/10/22 07:13:46;;;;;;;;;;;;;;;8.63;55.30;94580.59;4944267;28;19952;-68
2023/10/22 07:16:12;;;;;;;;;;;;;;;8.73;55.38;94574.13;4971501;28;19964;-68
2023/10/22 07:18:39;;;;;;;;;;;;;;;8.89;55.27;94581.84;4967268;28;19948;-69
2023/10/22 07:21:04;;;;;;;;;;;;;;;8.44;55.86;94585.53;4959469;28;19965;-68
2023/10/22 07:23:32;;;;;;;;;;;;;;;8.82;55.07;94583.63;4964892;28;19922;-68
2023/10/22 07:25:57;;;;;;;;;;;;;;;8.37;56.82;94595.25;4963995;28;19934;-69
2023/10/22 07:28:22;;;;;;;;;;;;;;;8.76;55.80;94595.81;4967025;28;20615;-68
2023/10/22 07:30:48;;;;;;;;;;;;;;;9.03;55.09;94595.22;4962890;28;20380;-68
2023/10/22 07:33:14;;;;;;;;;;;;;;;8.79;55.51;94595.44;4963379;28;19918;-68
2023/10/22 07:35:40;;;;;;;;;;;;;;;8.69;56.27;94613.53;4963468;28;19958;-68
2023/10/22 07:38:05;;;;;;;;;;;;;;;8.88;55.49;94612.03;4958355;28;19980;-68
2023/10/22 07:40:30;;;;;;;;;;;;;;;7.90;58.45;94608.03;4961025;28;20484;-68
2023/10/22 07:42:55;;;;;;;;;;;;;;;8.21;56.86;94620.22;4965696;28;19959;-68
2023/10/22 07:45:20;;;;;;;;;;;;;;;8.57;56.63;94616.69;4964408;28;19955;-68
2023/10/22 07:47:46;;;;;;;;;;;;;;;8.63;56.22;94628.38;4967108;28;19983;-69
2023/10/22 07:50:11;;;;;;;;;;;;;;;6.95;62.25;94629.72;4964626;28;19918;-68
2023/10/22 07:52:36;;;;;;;;;;;;;;;7.96;58.04;94625.81;4964272;28;20457;-68
2023/10/22 07:55:02;;;;;;;;;;;;;;;8.02;58.81;94617.16;4965696;28;19989;-68
2023/10/22 07:57:28;;;;;;;;;;;;;;;7.56;58.19;94625.31;4963460;28;19921;-68
2023/10/22 07:59:54;;;;;;;;;;;;;;;6.15;64.55;94633.41;4967707;28;19922;-67
2023/10/22 08:02:20;;;;;;;;;;;;;;;6.79;62.99;94630.69;4965493;28;20399;-67
2023/10/22 08:04:45;;;;;;;;;;;;;;;5.66;66.57;94640.59;4969235;28;20650;-69
2023/10/22 08:07:10;;;;;;;;;;;;;;;7.51;61.41;94626.69;4960642;28;20008;-68
2023/10/22 08:09:36;;;;;;;;;;;;;;;8.11;59.45;94635.59;4960554;28;19929;-69
2023/10/22 08:12:01;;;;;;;;;;;;;;;7.10;61.94;94635.03;4960594;28;19914;-68
2023/10/22 08:14:26;;;;;;;;;;;;;;;7.21;61.91;94634.59;4965535;28;20116;-68
2023/10/22 08:16:51;;;;;;;;;;;;;;;7.70;59.60;94645.69;4966248;28;19964;-67
2023/10/22 08:19:17;;;;;;;;;;;;;;;8.24;58.75;94643.72;4965736;28;19918;-69
2023/10/22 08:21:42;;;;;;;;;;;;;;;8.24;58.55;94646.34;4961013;28;19935;-66
2023/10/22 08:24:07;;;;;;;;;;;;;;;7.63;59.27;94663.31;4966050;28;19918;-69
2023/10/22 08:26:32;;;;;;;;;;;;;;;7.46;62.73;94642.31;4966285;28;19925;-67
2023/10/22 08:28:58;;;;;;;;;;;;;;;8.05;59.58;94650.41;4963319;28;19980;-67
2023/10/22 08:31:23;;;;;;;;;;;;;;;6.02;65.14;94651.66;4963338;28;19921;-69
2023/10/22 08:33:48;;;;;;;;;;;;;;;6.58;63.08;94653.34;4964672;28;19928;-68
2023/10/22 08:36:15;;;;;;;;;;;;;;;7.01;62.63;94668.72;4964915;28;19928;-68
2023/10/22 08:38:40;;;;;;;;;;;;;;;7.07;63.04;94673.28;4964620;28;19945;-65
2023/10/22 08:41:09;;;;;;;;;;;;;;;7.33;61.93;94665.94;4962131;28;20546;-68
2023/10/22 08:43:34;;;;;;;;;;;;;;;7.11;62.18;94671.91;4960105;28;19947;-67
2023/10/22 08:45:59;;;;;;;;;;;;;;;7.52;60.95;94672.53;4965335;28;20275;-68
2023/10/22 08:48:25;;;;;;;;;;;;;;;7.41;60.23;94702.91;4968229;28;19951;-69
2023/10/22 08:50:50;;;;;;;;;;;;;;;5.71;66.07;94685.78;4967505;28;20636;-67
2023/10/22 08:53:16;;;;;;;;;;;;;;;6.83;64.26;94687.56;4964313;28;20042;-67
2023/10/22 08:55:42;;;;;;;;;;;;;;;7.95;60.68;94685.16;4963711;28;19960;-69
2023/10/22 08:58:08;;;;;;;;;;;;;;;8.10;59.92;94692.28;4946702;28;19924;-68
2023/10/22 09:00:33;;;;;;;;;;;;;;;8.18;59.64;94690.34;4947893;28;19922;-68
2023/10/22 09:02:58;;;;;;;;;;;;;;;8.46;58.38;94706.56;4963382;28;20405;-67
2023/10/22 09:05:23;;;;;;;;;;;;;;;8.47;58.58;94698.41;4965145;28;20453;-68
2023/10/22 09:07:50;;;;;;;;;;;;;;;6.14;64.56;94716.34;4964592;28;20323;-68
2023/10/22 09:10:25;;;;;;;;;;;;;;;6.67;64.66;94715.78;4964004;28;20086;-67
2023/10/22 09:12:51;;;;;;;;;;;;;;;6.02;65.51;94709.81;4961806;28;20464;-67
2023/10/22 09:15:16;;;;;;;;;;;;;;;7.18;63.07;94705.63;4966686;28;19959;-67
2023/10/22 09:17:42;;;;;;;;;;;;;;;7.51;61.23;94705.31;4968645;28;19962;-69
2023/10/22 09:20:37;;;;;;;;;;;;;;;7.21;62.67;94710.56;4967659;28;19922;-68
2023/10/22 09:23:15;;;;;;;;;;;;;;;6.66;65.61;94714.09;4958661;28;19977;-68
2023/10/22 09:25:41;;;;;;;;;;;;;;;6.61;64.00;94721.75;4966252;28;19999;-68
2023/10/22 09:28:20;;;;;;;;;;;;;;;8.00;60.70;94713.75;4964516;28;20015;-69
2023/10/22 09:30:46;;;;;;;;;;;;;;;7.75;61.04;94712.19;4965063;28;19917;-68
2023/10/22 09:33:11;;;;;;;;;;;;;;;7.59;61.67;94723.78;4966556;28;19922;-67
2023/10/22 09:35:36;;;;;;;;;;;;;;;7.28;63.51;94720.25;4964390;28;20047;-69
2023/10/22 09:38:02;;;;;;;;;;;;;;;7.43;62.79;94719.47;4971846;28;19950;-68
2023/10/22 09:40:30;;;;;;;;;;;;;;;8.02;60.39;94717.03;4962669;28;19952;-67
2023/10/22 09:42:55;;;;;;;;;;;;;;;7.77;60.35;94722.63;4965034;28;19948;-67
2023/10/22 09:45:21;;;;;;;;;;;;;;;7.90;60.84;94725.47;4963655;28;20416;-67
2023/10/22 09:47:49;;;;;;;;;;;;;;;8.18;60.02;94724.81;4960897;28;19952;-69
2023/10/22 09:50:18;;;;;;;;;;;;;;;7.56;62.82;94723.31;4958915;28;20839;-69
2023/10/22 09:52:43;;;;;;;;;;;;;;;6.92;64.84;94727.97;4962391;28;19981;-67
2023/10/22 09:55:15;;;;;;;;;;;;;;;7.00;63.31;94734.03;4945221;28;19945;-67
2023/10/22 09:57:40;;;;;;;;;;;;;;;7.45;63.27;94733.34;4962354;28;20414;-68
2023/10/22 10:00:12;;;;;;;;;;;;;;;7.46;63.17;94740.28;4960574;28;19922;-69
2023/10/22 10:02:38;;;;;;;;;;;;;;;8.04;60.47;94720.34;4964641;28;19921;-67
2023/10/22 10:05:03;;;;;;;;;;;;;;;7.02;63.70;94740.00;4964381;28;19952;-68
2023/10/22 10:07:30;;;;;;;;;;;;;;;7.67;62.14;94736.13;4963740;28;19926;-68
2023/10/22 10:09:55;;;;;;;;;;;;;;;6.72;65.71;94742.50;4962609;28;19918;-67
2023/10/22 10:12:21;;;;;;;;;;;;;;;7.17;64.45;94747.16;4960617;28;19998;-67
2023/10/22 10:14:46;;;;;;;;;;;;;;;7.37;63.54;94746.66;4965524;28;19938;-68
2023/10/22 10:17:12;;;;;;;;;;;;;;;7.49;62.30;94742.59;4965297;28;19964;-68
2023/10/22 10:19:37;;;;;;;;;;;;;;;7.66;61.95;94740.56;4963030;28;19948;-68
2023/10/22 10:22:03;;;;;;;;;;;;;;;6.89;63.52;94759.09;4965273;28;19930;-69
2023/10/22 10:24:28;;;;;;;;;;;;;;;6.82;64.57;94752.03;4961841;28;20089;-68
2023/10/22 10:26:56;;;;;;;;;;;;;;;7.59;62.76;94755.56;4961457;28;20391;-68
2023/10/22 10:29:26;;;;;;;;;;;;;;;7.78;61.40;94751.59;4963671;28;20410;-68
2023/10/22 10:31:51;;;;;;;;;;;;;;;8.09;61.30;94754.25;4961775;28;19956;-68
2023/10/22 10:34:21;;;;;;;;;;;;;;;7.84;61.14;94755.34;4963131;28;20606;-68
2023/10/22 10:36:47;;;;;;;;;;;;;;;8.39;60.11;94764.81;4944616;28;20674;-68
2023/10/22 10:39:18;;;;;;;;;;;;;;;7.39;61.95;94793.13;4965126;28;20009;-67
2023/10/22 10:41:50;;;;;;;;;;;;;;;7.57;61.62;94768.16;4946554;28;20653;-67
2023/10/22 10:44:15;;;;;;;;;;;;;;;7.59;61.60;94773.28;4961888;28;19921;-66
2023/10/22 10:46:40;;;;;;;;;;;;;;;7.37;62.46;94773.97;4966320;28;19936;-68
2023/10/22 10:49:05;;;;;;;;;;;;;;;7.85;61.10;94780.03;4967551;28;20011;-69
2023/10/22 10:51:31;;;;;;;;;;;;;;;7.12;62.50;94783.94;4962306;28;19922;-68
2023/10/22 10:54:12;;;;;;;;;;;;;;;7.61;61.92;94781.84;4943846;28;20043;-69
2023/10/22 10:57:04;;;;;;;;;;;;;;;8.49;59.10;94788.41;4960233;28;19926;-68
2023/10/22 10:59:32;;;;;;;;;;;;;;;8.75;58.03;94785.28;4956439;28;20140;-67
2023/10/22 11:02:01;;;;;;;;;;;;;;;8.75;57.62;94784.44;4961216;28;19910;-67
2023/10/22 11:04:27;;;;;;;;;;;;;;;7.77;60.94;94800.31;4960047;28;19945;-67
2023/10/22 11:06:52;;;;;;;;;;;;;;;7.91;59.63;94792.53;4962146;28;20364;-70
2023/10/22 11:09:17;;;;;;;;;;;;;;;8.00;60.56;94793.28;4961385;28;20442;-69
2023/10/22 11:11:58;;;;;;;;;;;;;;;6.84;63.69;94795.84;4961496;28;19962;-69
2023/10/22 11:14:25;;;;;;;;;;;;;;;7.91;60.49;94793.38;4964233;28;19910;-69
2023/10/22 11:16:51;;;;;;;;;;;;;;;7.61;61.04;94797.75;4966374;28;19972;-67
2023/10/22 11:19:23;;;;;;;;;;;;;;;7.19;63.75;94787.50;4966268;28;20585;-69
2023/10/22 11:21:48;;;;;;;;;;;;;;;8.22;59.95;94801.31;4965661;28;19914;-66
2023/10/22 11:24:14;;;;;;;;;;;;;;;8.39;58.97;94804.59;4966266;28;19979;-68
2023/10/22 11:26:39;;;;;;;;;;;;;;;8.18;59.98;94807.00;4966822;28;20378;-67
2023/10/22 11:29:04;;;;;;;;;;;;;;;7.15;63.25;94813.50;4967612;28;20448;-68
2023/10/22 11:31:29;;;;;;;;;;;;;;;7.38;62.82;94807.38;4967212;28;19949;-69
2023/10/22 11:33:55;;;;;;;;;;;;;;;7.38;62.30;94807.38;4961335;28;20372;-69
2023/10/22 11:36:23;;;;;;;;;;;;;;;7.49;62.53;94800.03;4961028;28;19926;-71
2023/10/22 11:38:50;;;;;;;;;;;;;;;7.33;62.78;94798.31;4961922;28;19936;-70
2023/10/22 11:41:15;;;;;;;;;;;;;;;8.05;60.40;94801.50;4962768;28;20179;-68
2023/10/22 11:43:43;;;;;;;;;;;;;;;8.41;59.80;94802.59;4961789;28;19997;-67
2023/10/22 11:46:08;;;;;;;;;;;;;;;7.83;61.40;94814.66;4961739;28;19922;-67
2023/10/22 11:48:37;;;;;;;;;;;;;;;8.29;59.88;94799.59;4962128;28;20581;-68
2023/10/22 11:51:04;;;;;;;;;;;;;;;7.84;61.86;94803.06;4965991;28;19980;-70
2023/10/22 11:53:41;;;;;;;;;;;;;;;6.62;65.30;94805.38;4959614;28;20558;-68
2023/10/22 11:56:06;;;;;;;;;;;;;;;7.61;62.13;94803.06;4960011;28;19933;-69
2023/10/22 11:58:31;;;;;;;;;;;;;;;7.95;60.79;94804.44;4968375;28;20336;-69
2023/10/22 12:00:57;;;;;;;;;;;;;;;8.15;60.40;94799.41;4966819;28;20427;-70
2023/10/22 12:03:22;;;;;;;;;;;;;;;7.37;62.01;94810.19;4968345;28;19940;-68
2023/10/22 12:05:48;;;;;;;;;;;;;;;8.08;60.65;94808.28;4970612;28;19972;-68
2023/10/22 12:08:13;;;;;;;;;;;;;;;8.22;60.09;94811.94;4960602;28;20005;-68
2023/10/22 12:10:38;;;;;;;;;;;;;;;8.75;58.94;94803.84;4961181;28;19969;-68
2023/10/22 12:13:06;;;;;;;;;;;;;;;9.20;57.70;94813.53;4962446;28;19933;-69
2023/10/22 12:15:32;;;;;;;;;;;;;;;9.34;56.84;94817.13;4960218;28;20487;-71
2023/10/22 12:17:57;;;;;;;;;;;;;;;8.88;58.37;94811.13;4964828;28;19955;-69
2023/10/22 12:20:22;;;;;;;;;;;;;;;8.28;60.02;94817.34;4965887;28;19957;-70
2023/10/22 12:22:48;;;;;;;;;;;;;;;8.88;57.63;94821.72;4942057;28;19945;-72
2023/10/22 12:25:14;;;;;;;;;;;;;;;9.30;56.55;94834.47;4966964;28;19930;-70
2023/10/22 12:27:39;;;;;;;;;;;;;;;8.68;58.79;94829.47;4968795;28;19960;-72
2023/10/22 12:30:07;;;;;;;;;;;;;;;8.38;59.34;94837.44;4968176;28;19956;-71
2023/10/22 12:32:32;;;;;;;;;;;;;;;8.75;58.15;94843.66;4971046;28;19968;-71
2023/10/22 12:34:59;;;;;;;;;;;;;;;8.77;58.58;94841.63;4969158;28;19922;-73
2023/10/22 12:37:24;;;;;;;;;;;;;;;7.89;60.64;94848.38;4969655;28;19944;-70
2023/10/22 12:39:50;;;;;;;;;;;;;;;8.84;57.76;94848.84;4970157;28;20456;-72
2023/10/22 12:42:15;;;;;;;;;;;;;;;9.26;57.06;94849.97;4969791;28;19914;-70
2023/10/22 12:44:43;;;;;;;;;;;;;;;7.84;60.64;94855.22;4969527;28;19918;-73
2023/10/22 12:47:12;;;;;;;;;;;;;;;7.95;61.01;94860.09;4971663;28;19971;-72
2023/10/22 12:49:38;;;;;;;;;;;;;;;7.86;61.87;94855.88;4964930;28;19956;-71
2023/10/22 12:52:03;;;;;;;;;;;;;;;8.97;57.98;94854.34;4964541;28;19954;-70